sensor_id;sensor_type;location;lat;lon;timestamp;pressure;altitude;pressure_sealevel;temperature;humidity
10310;BME280;5200;43.236;27.986;2022-09-09T00:01:59;100318.81;;;17.96;89.77
10310;BME280;5200;43.236;27.986;2022-09-09T00:04:29;100324.81;;;17.98;89.40
10310;BME280;5200;43.236;27.986;2022-09-09T00:07:03;100311.66;;;17.96;89.67
10310;BME280;5200;43.236;27.986;2022-09-09T00:09:36;100315.50;;;17.94;89.82
10310;BME280;5200;43.236;27.986;2022-09-09T00:12:11;100305.88;;;17.93;90.13
10310;BME280;5200;43.236;27.986;2022-09-09T00:14:45;100305.88;;;17.93;90.27
10310;BME280;5200;43.236;27.986;2022-09-09T00:17:24;100308.91;;;17.90;90.33
10310;BME280;5200;43.236;27.986;2022-09-09T00:19:58;100298.88;;;17.92;90.02
10310;BME280;5200;43.236;27.986;2022-09-09T00:22:29;100305.72;;;17.94;89.80
10310;BME280;5200;43.236;27.986;2022-09-09T00:25:03;100305.06;;;17.92;90.43
10310;BME280;5200;43.236;27.986;2022-09-09T00:27:41;100296.22;;;17.92;90.38
10310;BME280;5200;43.236;27.986;2022-09-09T00:30:15;100298.88;;;17.92;90.35
10310;BME280;5200;43.236;27.986;2022-09-09T00:32:46;100285.47;;;17.85;90.45
10310;BME280;5200;43.236;27.986;2022-09-09T00:35:21;100288.59;;;17.89;90.71
10310;BME280;5200;43.236;27.986;2022-09-09T00:37:51;100296.59;;;17.89;90.62
10310;BME280;5200;43.236;27.986;2022-09-09T00:40:25;100301.91;;;17.89;90.58
10310;BME280;5200;43.236;27.986;2022-09-09T00:43:12;100251.84;;;17.61;90.74
10310;BME280;5200;43.236;27.986;2022-09-09T00:46:01;100297.59;;;17.88;90.78
10310;BME280;5200;43.236;27.986;2022-09-09T00:48:41;100298.59;;;17.87;90.63
10310;BME280;5200;43.236;27.986;2022-09-09T00:51:15;100283.00;;;17.84;90.50
10310;BME280;5200;43.236;27.986;2022-09-09T00:54:04;100291.91;;;17.91;90.44
10310;BME280;5200;43.236;27.986;2022-09-09T00:56:38;100279.31;;;17.85;90.51
10310;BME280;5200;43.236;27.986;2022-09-09T00:59:16;100286.97;;;17.88;90.35
10310;BME280;5200;43.236;27.986;2022-09-09T01:01:48;100281.63;;;17.88;90.01
10310;BME280;5200;43.236;27.986;2022-09-09T01:04:23;100285.28;;;17.87;90.18
10310;BME280;5200;43.236;27.986;2022-09-09T01:06:56;100280.97;;;17.86;89.80
10310;BME280;5200;43.236;27.986;2022-09-09T01:09:33;100286.31;;;17.86;89.61
10310;BME280;5200;43.236;27.986;2022-09-09T01:12:09;100281.63;;;17.88;89.60
10310;BME280;5200;43.236;27.986;2022-09-09T01:14:43;100278.16;;;17.87;89.39
10310;BME280;5200;43.236;27.986;2022-09-09T01:17:17;100276.84;;;17.83;89.61
10310;BME280;5200;43.236;27.986;2022-09-09T01:19:55;100281.34;;;17.83;89.67
10310;BME280;5200;43.236;27.986;2022-09-09T01:22:32;100278.03;;;17.81;89.60
10310;BME280;5200;43.236;27.986;2022-09-09T01:25:20;100279.53;;;17.75;89.99
10310;BME280;5200;43.236;27.986;2022-09-09T01:27:51;100286.97;;;17.80;90.08
10310;BME280;5200;43.236;27.986;2022-09-09T01:30:20;100273.75;;;17.71;90.11
10310;BME280;5200;43.236;27.986;2022-09-09T01:32:50;100288.00;;;17.79;90.05
10310;BME280;5200;43.236;27.986;2022-09-09T01:35:27;100286.97;;;17.80;90.30
10310;BME280;5200;43.236;27.986;2022-09-09T01:37:56;100293.47;;;17.77;90.50
10310;BME280;5200;43.236;27.986;2022-09-09T01:40:24;100288.81;;;17.79;90.35
10310;BME280;5200;43.236;27.986;2022-09-09T01:42:53;100286.97;;;17.80;90.94
10310;BME280;5200;43.236;27.986;2022-09-09T01:45:21;100283.50;;;17.79;91.04
10310;BME280;5200;43.236;27.986;2022-09-09T01:47:48;100282.47;;;17.80;91.02
10310;BME280;5200;43.236;27.986;2022-09-09T01:50:16;100275.50;;;17.79;91.31
10310;BME280;5200;43.236;27.986;2022-09-09T01:52:44;100276.84;;;17.75;91.59
10310;BME280;5200;43.236;27.986;2022-09-09T01:55:13;100280.38;;;17.75;91.44
10310;BME280;5200;43.236;27.986;2022-09-09T01:57:46;100287.69;;;17.73;92.07
10310;BME280;5200;43.236;27.986;2022-09-09T02:00:18;100278.41;;;17.69;92.19
10310;BME280;5200;43.236;27.986;2022-09-09T02:02:50;100277.22;;;17.72;92.11
10310;BME280;5200;43.236;27.986;2022-09-09T02:05:30;100280.69;;;17.72;92.47
10310;BME280;5200;43.236;27.986;2022-09-09T02:08:06;100281.88;;;17.70;92.98
10310;BME280;5200;43.236;27.986;2022-09-09T02:10:39;100290.69;;;17.70;93.28
10310;BME280;5200;43.236;27.986;2022-09-09T02:13:11;100288.03;;;17.70;93.18
10310;BME280;5200;43.236;27.986;2022-09-09T02:15:44;100290.03;;;17.68;93.82
10310;BME280;5200;43.236;27.986;2022-09-09T02:18:17;100298.03;;;17.68;94.31
10310;BME280;5200;43.236;27.986;2022-09-09T02:20:47;100286.44;;;17.61;94.20
10310;BME280;5200;43.236;27.986;2022-09-09T02:23:15;100290.41;;;17.65;94.83
10310;BME280;5200;43.236;27.986;2022-09-09T02:25:42;100296.38;;;17.67;95.06
10310;BME280;5200;43.236;27.986;2022-09-09T02:28:14;100295.91;;;17.64;95.74
10310;BME280;5200;43.236;27.986;2022-09-09T02:30:45;100289.59;;;17.65;95.47
10310;BME280;5200;43.236;27.986;2022-09-09T02:33:14;100293.06;;;17.65;96.14
10310;BME280;5200;43.236;27.986;2022-09-09T02:35:42;100290.59;;;17.64;96.36
10310;BME280;5200;43.236;27.986;2022-09-09T02:38:12;100285.44;;;17.62;96.80
10310;BME280;5200;43.236;27.986;2022-09-09T02:40:40;100282.13;;;17.60;97.16
10310;BME280;5200;43.236;27.986;2022-09-09T02:43:07;100293.44;;;17.62;97.11
10310;BME280;5200;43.236;27.986;2022-09-09T02:45:39;100290.09;;;17.60;97.88
10310;BME280;5200;43.236;27.986;2022-09-09T02:48:14;100288.63;;;17.58;97.73
10310;BME280;5200;43.236;27.986;2022-09-09T02:50:52;100285.81;;;17.59;98.16
10310;BME280;5200;43.236;27.986;2022-09-09T02:53:24;100291.94;;;17.60;98.43
10310;BME280;5200;43.236;27.986;2022-09-09T02:55:58;100287.81;;;17.57;98.05
10310;BME280;5200;43.236;27.986;2022-09-09T02:58:30;100285.84;;;17.51;99.16
10310;BME280;5200;43.236;27.986;2022-09-09T03:00:57;100296.31;;;17.52;99.35
10310;BME280;5200;43.236;27.986;2022-09-09T03:03:27;100288.50;;;17.51;99.68
10310;BME280;5200;43.236;27.986;2022-09-09T03:05:55;100292.84;;;17.52;99.35
10310;BME280;5200;43.236;27.986;2022-09-09T03:08:22;100287.84;;;17.49;99.66
10310;BME280;5200;43.236;27.986;2022-09-09T03:10:49;100289.03;;;17.46;99.82
10310;BME280;5200;43.236;27.986;2022-09-09T03:13:19;100294.50;;;17.45;100.00
10310;BME280;5200;43.236;27.986;2022-09-09T03:15:47;100292.06;;;17.43;100.00
10310;BME280;5200;43.236;27.986;2022-09-09T03:18:14;100288.72;;;17.41;100.00
10310;BME280;5200;43.236;27.986;2022-09-09T03:20:43;100290.38;;;17.42;100.00
10310;BME280;5200;43.236;27.986;2022-09-09T03:23:10;100295.22;;;17.39;100.00
10310;BME280;5200;43.236;27.986;2022-09-09T03:25:39;100296.06;;;17.39;100.00
10310;BME280;5200;43.236;27.986;2022-09-09T03:28:06;100307.72;;;17.38;100.00
10310;BME280;5200;43.236;27.986;2022-09-09T03:30:33;100299.25;;;17.35;100.00
10310;BME280;5200;43.236;27.986;2022-09-09T03:33:00;100312.00;;;17.39;100.00
10310;BME280;5200;43.236;27.986;2022-09-09T03:35:26;100298.25;;;17.36;100.00
10310;BME280;5200;43.236;27.986;2022-09-09T03:37:56;100300.56;;;17.39;100.00
10310;BME280;5200;43.236;27.986;2022-09-09T03:40:23;100299.38;;;17.41;100.00
10310;BME280;5200;43.236;27.986;2022-09-09T03:42:50;100293.56;;;17.38;100.00
10310;BME280;5200;43.236;27.986;2022-09-09T03:45:17;100302.28;;;17.54;100.00
10310;BME280;5200;43.236;27.986;2022-09-09T03:47:43;100293.25;;;17.64;100.00
10310;BME280;5200;43.236;27.986;2022-09-09T03:50:10;100303.13;;;17.78;100.00
10310;BME280;5200;43.236;27.986;2022-09-09T03:52:38;100286.31;;;17.86;100.00
10310;BME280;5200;43.236;27.986;2022-09-09T03:55:08;100294.06;;;18.10;100.00
10310;BME280;5200;43.236;27.986;2022-09-09T03:57:35;100296.88;;;18.32;99.95
10310;BME280;5200;43.236;27.986;2022-09-09T04:00:03;100304.28;;;18.59;99.00
10310;BME280;5200;43.236;27.986;2022-09-09T04:02:31;100306.72;;;18.84;97.75
10310;BME280;5200;43.236;27.986;2022-09-09T04:04:57;100298.78;;;19.06;96.33
10310;BME280;5200;43.236;27.986;2022-09-09T04:07:25;100299.88;;;19.26;95.32
10310;BME280;5200;43.236;27.986;2022-09-09T04:09:52;100300.00;;;19.39;94.00
10310;BME280;5200;43.236;27.986;2022-09-09T04:12:21;100299.69;;;19.49;93.08
10310;BME280;5200;43.236;27.986;2022-09-09T04:14:48;100303.63;;;19.68;92.92
10310;BME280;5200;43.236;27.986;2022-09-09T04:17:14;100302.88;;;19.96;91.53
10310;BME280;5200;43.236;27.986;2022-09-09T04:19:42;100299.00;;;20.26;90.23
10310;BME280;5200;43.236;27.986;2022-09-09T04:22:09;100309.78;;;20.61;88.86
10310;BME280;5200;43.236;27.986;2022-09-09T04:24:36;100296.00;;;20.99;87.07
10310;BME280;5200;43.236;27.986;2022-09-09T04:27:03;100294.88;;;21.35;84.18
10310;BME280;5200;43.236;27.986;2022-09-09T04:29:31;100296.03;;;21.67;82.69
10310;BME280;5200;43.236;27.986;2022-09-09T04:32:00;100302.03;;;21.96;82.24
10310;BME280;5200;43.236;27.986;2022-09-09T04:34:27;100300.03;;;22.25;79.94
10310;BME280;5200;43.236;27.986;2022-09-09T04:36:55;100303.31;;;22.53;78.74
10310;BME280;5200;43.236;27.986;2022-09-09T04:39:22;100306.91;;;22.86;77.68
10310;BME280;5200;43.236;27.986;2022-09-09T04:41:50;100307.88;;;23.18;76.23
10310;BME280;5200;43.236;27.986;2022-09-09T04:44:16;100312.91;;;23.46;74.74
10310;BME280;5200;43.236;27.986;2022-09-09T04:46:45;100310.69;;;23.68;73.39
10310;BME280;5200;43.236;27.986;2022-09-09T04:49:11;100308.97;;;23.87;72.57
10310;BME280;5200;43.236;27.986;2022-09-09T04:51:38;100308.97;;;24.12;70.51
10310;BME280;5200;43.236;27.986;2022-09-09T04:54:05;100305.69;;;24.35;70.17
10310;BME280;5200;43.236;27.986;2022-09-09T04:56:32;100298.88;;;24.58;68.58
10310;BME280;5200;43.236;27.986;2022-09-09T04:58:59;100306.28;;;24.81;67.43
10310;BME280;5200;43.236;27.986;2022-09-09T05:01:28;100293.06;;;24.98;66.57
10310;BME280;5200;43.236;27.986;2022-09-09T05:03:56;100293.34;;;25.08;65.93
10310;BME280;5200;43.236;27.986;2022-09-09T05:06:23;100284.69;;;25.24;65.61
10310;BME280;5200;43.236;27.986;2022-09-09T05:08:50;100291.97;;;25.36;64.85
10310;BME280;5200;43.236;27.986;2022-09-09T05:11:18;100292.38;;;25.51;64.77
10310;BME280;5200;43.236;27.986;2022-09-09T05:13:46;100286.44;;;25.61;63.68
10310;BME280;5200;43.236;27.986;2022-09-09T05:16:13;100299.50;;;25.76;63.50
10310;BME280;5200;43.236;27.986;2022-09-09T05:18:41;100292.56;;;25.80;62.78
10310;BME280;5200;43.236;27.986;2022-09-09T05:21:10;100294.34;;;25.86;62.80
10310;BME280;5200;43.236;27.986;2022-09-09T05:23:37;100296.38;;;25.90;63.12
10310;BME280;5200;43.236;27.986;2022-09-09T05:26:04;100289.72;;;25.93;62.27
10310;BME280;5200;43.236;27.986;2022-09-09T05:28:34;100283.72;;;25.91;62.38
10310;BME280;5200;43.236;27.986;2022-09-09T05:31:02;100288.88;;;25.92;62.61
10310;BME280;5200;43.236;27.986;2022-09-09T05:33:30;100279.03;;;25.98;62.22
10310;BME280;5200;43.236;27.986;2022-09-09T05:35:59;100281.84;;;26.03;62.48
10310;BME280;5200;43.236;27.986;2022-09-09T05:38:28;100282.44;;;26.05;62.08
10310;BME280;5200;43.236;27.986;2022-09-09T05:40:56;100281.53;;;26.11;61.98
10310;BME280;5200;43.236;27.986;2022-09-09T05:43:23;100280.13;;;26.21;62.18
10310;BME280;5200;43.236;27.986;2022-09-09T05:45:59;100280.34;;;26.31;62.06
10310;BME280;5200;43.236;27.986;2022-09-09T05:48:28;100283.16;;;26.36;62.26
10310;BME280;5200;43.236;27.986;2022-09-09T05:50:56;100279.75;;;26.41;61.92
10310;BME280;5200;43.236;27.986;2022-09-09T05:53:23;100270.50;;;26.48;61.91
10310;BME280;5200;43.236;27.986;2022-09-09T05:55:58;100280.81;;;26.75;62.13
10310;BME280;5200;43.236;27.986;2022-09-09T05:58:25;100283.13;;;26.83;60.79
10310;BME280;5200;43.236;27.986;2022-09-09T06:00:52;100277.03;;;26.76;60.78
10310;BME280;5200;43.236;27.986;2022-09-09T06:03:19;100287.72;;;26.83;61.77
10310;BME280;5200;43.236;27.986;2022-09-09T06:05:57;100281.22;;;27.07;60.36
10310;BME280;5200;43.236;27.986;2022-09-09T06:08:23;100288.28;;;27.37;58.55
10310;BME280;5200;43.236;27.986;2022-09-09T06:10:52;100288.31;;;27.54;57.81
10310;BME280;5200;43.236;27.986;2022-09-09T06:13:19;100283.91;;;27.65;57.67
10310;BME280;5200;43.236;27.986;2022-09-09T06:15:50;100283.25;;;27.57;58.11
10310;BME280;5200;43.236;27.986;2022-09-09T06:18:17;100279.81;;;27.62;58.29
10310;BME280;5200;43.236;27.986;2022-09-09T06:20:53;100284.88;;;27.58;58.58
10310;BME280;5200;43.236;27.986;2022-09-09T06:23:20;100283.41;;;27.68;58.37
10310;BME280;5200;43.236;27.986;2022-09-09T06:25:47;100282.22;;;27.75;58.30
10310;BME280;5200;43.236;27.986;2022-09-09T06:28:16;100289.56;;;27.92;57.54
10310;BME280;5200;43.236;27.986;2022-09-09T06:30:43;100293.31;;;27.91;57.82
10310;BME280;5200;43.236;27.986;2022-09-09T06:33:10;100293.97;;;27.98;57.71
10310;BME280;5200;43.236;27.986;2022-09-09T06:35:36;100286.94;;;27.97;57.91
10310;BME280;5200;43.236;27.986;2022-09-09T06:38:03;100290.03;;;27.89;58.74
10310;BME280;5200;43.236;27.986;2022-09-09T06:40:31;100290.16;;;27.82;58.71
10310;BME280;5200;43.236;27.986;2022-09-09T06:42:59;100298.78;;;27.96;58.62
10310;BME280;5200;43.236;27.986;2022-09-09T06:45:28;100303.31;;;28.07;58.37
10310;BME280;5200;43.236;27.986;2022-09-09T06:47:55;100302.16;;;28.03;58.28
10310;BME280;5200;43.236;27.986;2022-09-09T06:50:23;100310.38;;;28.08;58.50
10310;BME280;5200;43.236;27.986;2022-09-09T06:52:49;100302.97;;;28.20;58.52
10310;BME280;5200;43.236;27.986;2022-09-09T06:55:17;100307.31;;;28.21;58.91
10310;BME280;5200;43.236;27.986;2022-09-09T06:57:44;100314.00;;;28.36;58.83
10310;BME280;5200;43.236;27.986;2022-09-09T07:00:12;100308.38;;;28.37;58.63
10310;BME280;5200;43.236;27.986;2022-09-09T07:02:41;100308.38;;;28.20;59.03
10310;BME280;5200;43.236;27.986;2022-09-09T07:05:08;100311.81;;;28.33;58.71
10310;BME280;5200;43.236;27.986;2022-09-09T07:07:36;100305.91;;;28.36;58.85
10310;BME280;5200;43.236;27.986;2022-09-09T07:10:03;100296.22;;;28.40;58.60
10310;BME280;5200;43.236;27.986;2022-09-09T07:12:31;100301.13;;;28.43;58.19
10310;BME280;5200;43.236;27.986;2022-09-09T07:14:57;100313.13;;;28.47;58.42
10310;BME280;5200;43.236;27.986;2022-09-09T07:17:24;100311.06;;;28.37;59.33
10310;BME280;5200;43.236;27.986;2022-09-09T07:19:52;100316.25;;;28.39;58.74
10310;BME280;5200;43.236;27.986;2022-09-09T07:22:19;100305.22;;;28.45;58.73
10310;BME280;5200;43.236;27.986;2022-09-09T07:24:46;100316.41;;;28.49;58.72
10310;BME280;5200;43.236;27.986;2022-09-09T07:27:15;100315.22;;;28.45;58.79
10310;BME280;5200;43.236;27.986;2022-09-09T07:29:41;100312.16;;;28.36;59.10
10310;BME280;5200;43.236;27.986;2022-09-09T07:32:08;100311.47;;;28.29;59.45
10310;BME280;5200;43.236;27.986;2022-09-09T07:34:35;100315.94;;;28.18;59.42
10310;BME280;5200;43.236;27.986;2022-09-09T07:37:03;100302.81;;;28.10;59.80
10310;BME280;5200;43.236;27.986;2022-09-09T07:39:30;100299.06;;;27.94;60.68
10310;BME280;5200;43.236;27.986;2022-09-09T07:41:57;100302.66;;;28.00;60.69
10310;BME280;5200;43.236;27.986;2022-09-09T07:44:24;100306.16;;;28.00;61.02
10310;BME280;5200;43.236;27.986;2022-09-09T07:46:52;100310.53;;;28.01;60.20
10310;BME280;5200;43.236;27.986;2022-09-09T07:49:19;100312.81;;;27.93;59.27
10310;BME280;5200;43.236;27.986;2022-09-09T07:51:47;100315.44;;;27.88;59.28
10310;BME280;5200;43.236;27.986;2022-09-09T07:54:17;100323.78;;;28.03;59.22
10310;BME280;5200;43.236;27.986;2022-09-09T07:56:45;100313.97;;;27.97;58.33
10310;BME280;5200;43.236;27.986;2022-09-09T07:59:13;100315.94;;;27.85;59.60
10310;BME280;5200;43.236;27.986;2022-09-09T08:01:41;100320.03;;;28.04;59.38
10310;BME280;5200;43.236;27.986;2022-09-09T08:04:10;100315.28;;;28.11;59.82
10310;BME280;5200;43.236;27.986;2022-09-09T08:06:43;100326.91;;;28.29;59.14
10310;BME280;5200;43.236;27.986;2022-09-09T08:09:10;100329.19;;;28.37;57.28
10310;BME280;5200;43.236;27.986;2022-09-09T08:11:39;100322.97;;;28.36;57.03
10310;BME280;5200;43.236;27.986;2022-09-09T08:14:06;100323.78;;;28.37;57.94
10310;BME280;5200;43.236;27.986;2022-09-09T08:16:36;100313.38;;;28.29;58.04
10310;BME280;5200;43.236;27.986;2022-09-09T08:19:04;100320.16;;;28.31;57.96
10310;BME280;5200;43.236;27.986;2022-09-09T08:21:32;100327.53;;;28.36;57.55
10310;BME280;5200;43.236;27.986;2022-09-09T08:24:00;100311.81;;;28.33;57.84
10310;BME280;5200;43.236;27.986;2022-09-09T08:26:28;100311.03;;;28.15;59.06
10310;BME280;5200;43.236;27.986;2022-09-09T08:28:58;100304.28;;;28.18;59.31
10310;BME280;5200;43.236;27.986;2022-09-09T08:31:27;100304.13;;;28.24;59.06
10310;BME280;5200;43.236;27.986;2022-09-09T08:33:54;100297.72;;;28.31;59.53
10310;BME280;5200;43.236;27.986;2022-09-09T08:36:23;100293.97;;;28.49;58.62
10310;BME280;5200;43.236;27.986;2022-09-09T08:38:52;100286.53;;;28.61;58.54
10310;BME280;5200;43.236;27.986;2022-09-09T08:41:36;100288.19;;;28.45;58.98
10310;BME280;5200;43.236;27.986;2022-09-09T08:44:10;100291.31;;;28.37;60.00
10310;BME280;5200;43.236;27.986;2022-09-09T08:46:46;100291.16;;;28.43;59.00
10310;BME280;5200;43.236;27.986;2022-09-09T08:49:35;100290.75;;;28.35;59.08
10310;BME280;5200;43.236;27.986;2022-09-09T08:52:13;100291.91;;;28.39;59.02
10310;BME280;5200;43.236;27.986;2022-09-09T08:54:43;100284.44;;;28.46;58.75
10310;BME280;5200;43.236;27.986;2022-09-09T08:57:12;100287.16;;;28.46;58.79
10310;BME280;5200;43.236;27.986;2022-09-09T08:59:41;100281.47;;;28.48;59.17
10310;BME280;5200;43.236;27.986;2022-09-09T09:02:15;100281.22;;;28.49;59.08
10310;BME280;5200;43.236;27.986;2022-09-09T09:04:56;100283.28;;;28.42;58.94
10310;BME280;5200;43.236;27.986;2022-09-09T09:07:33;100276.56;;;28.28;58.82
10310;BME280;5200;43.236;27.986;2022-09-09T09:10:11;100278.38;;;28.22;59.13
10310;BME280;5200;43.236;27.986;2022-09-09T09:12:44;100268.38;;;28.22;59.49
10310;BME280;5200;43.236;27.986;2022-09-09T09:15:19;100267.53;;;28.22;59.00
10310;BME280;5200;43.236;27.986;2022-09-09T09:17:47;100270.34;;;28.10;59.60
10310;BME280;5200;43.236;27.986;2022-09-09T09:20:16;100269.81;;;28.08;59.71
10310;BME280;5200;43.236;27.986;2022-09-09T09:22:48;100286.50;;;28.05;59.37
10310;BME280;5200;43.236;27.986;2022-09-09T09:25:18;100289.38;;;27.98;59.15
10310;BME280;5200;43.236;27.986;2022-09-09T09:27:50;100288.91;;;27.85;59.72
10310;BME280;5200;43.236;27.986;2022-09-09T09:30:21;100285.44;;;27.89;59.76
10310;BME280;5200;43.236;27.986;2022-09-09T09:32:52;100293.16;;;27.97;58.93
10310;BME280;5200;43.236;27.986;2022-09-09T09:35:20;100291.34;;;28.03;59.12
10310;BME280;5200;43.236;27.986;2022-09-09T09:37:47;100292.09;;;28.15;58.67
10310;BME280;5200;43.236;27.986;2022-09-09T09:40:16;100294.28;;;28.18;58.42
10310;BME280;5200;43.236;27.986;2022-09-09T09:42:52;100291.91;;;28.05;58.83
10310;BME280;5200;43.236;27.986;2022-09-09T09:45:29;100290.03;;;27.89;58.75
10310;BME280;5200;43.236;27.986;2022-09-09T09:48:00;100292.72;;;27.89;59.06
10310;BME280;5200;43.236;27.986;2022-09-09T09:50:28;100302.50;;;27.90;59.08
10310;BME280;5200;43.236;27.986;2022-09-09T09:52:58;100299.88;;;27.95;59.08
10310;BME280;5200;43.236;27.986;2022-09-09T09:55:25;100289.06;;;27.95;58.56
10310;BME280;5200;43.236;27.986;2022-09-09T09:57:53;100281.59;;;27.85;58.13
10310;BME280;5200;43.236;27.986;2022-09-09T10:00:22;100283.25;;;27.74;58.87
10310;BME280;5200;43.236;27.986;2022-09-09T10:02:50;100286.22;;;27.73;58.17
10310;BME280;5200;43.236;27.986;2022-09-09T10:05:20;100267.94;;;27.63;59.08
10310;BME280;5200;43.236;27.986;2022-09-09T10:08:00;100273.00;;;27.43;58.99
10310;BME280;5200;43.236;27.986;2022-09-09T10:10:37;100284.63;;;27.43;59.56
10310;BME280;5200;43.236;27.986;2022-09-09T10:13:12;100290.34;;;27.47;60.25
10310;BME280;5200;43.236;27.986;2022-09-09T10:15:48;100277.78;;;27.69;59.34
10310;BME280;5200;43.236;27.986;2022-09-09T10:18:36;100275.72;;;27.76;59.71
10310;BME280;5200;43.236;27.986;2022-09-09T10:21:11;100280.47;;;27.69;59.84
10310;BME280;5200;43.236;27.986;2022-09-09T10:23:56;100278.66;;;27.58;59.47
10310;BME280;5200;43.236;27.986;2022-09-09T10:26:36;100275.38;;;27.56;59.69
10310;BME280;5200;43.236;27.986;2022-09-09T10:29:28;100269.00;;;27.45;59.80
10310;BME280;5200;43.236;27.986;2022-09-09T10:32:07;100269.50;;;27.30;60.00
10310;BME280;5200;43.236;27.986;2022-09-09T10:34:53;100275.41;;;27.27;60.81
10310;BME280;5200;43.236;27.986;2022-09-09T10:37:37;100262.56;;;27.34;60.98
10310;BME280;5200;43.236;27.986;2022-09-09T10:40:20;100260.28;;;27.26;60.64
10310;BME280;5200;43.236;27.986;2022-09-09T10:42:51;100267.09;;;27.17;60.92
10310;BME280;5200;43.236;27.986;2022-09-09T10:45:24;100268.63;;;27.13;61.10
10310;BME280;5200;43.236;27.986;2022-09-09T10:48:19;100267.31;;;27.15;61.67
10310;BME280;5200;43.236;27.986;2022-09-09T10:50:59;100270.97;;;27.21;61.91
10310;BME280;5200;43.236;27.986;2022-09-09T10:53:36;100271.16;;;27.31;61.82
10310;BME280;5200;43.236;27.986;2022-09-09T10:56:07;100275.56;;;27.37;61.51
10310;BME280;5200;43.236;27.986;2022-09-09T10:58:39;100271.47;;;27.35;61.31
10310;BME280;5200;43.236;27.986;2022-09-09T11:01:15;100276.94;;;27.23;61.57
10310;BME280;5200;43.236;27.986;2022-09-09T11:03:43;100262.72;;;27.16;61.69
10310;BME280;5200;43.236;27.986;2022-09-09T11:06:18;100255.13;;;27.13;61.54
10310;BME280;5200;43.236;27.986;2022-09-09T11:08:46;100258.38;;;26.86;62.81
10310;BME280;5200;43.236;27.986;2022-09-09T11:11:19;100262.63;;;26.82;62.74
10310;BME280;5200;43.236;27.986;2022-09-09T11:13:51;100262.72;;;26.87;63.49
10310;BME280;5200;43.236;27.986;2022-09-09T11:16:25;100268.00;;;26.82;63.68
10310;BME280;5200;43.236;27.986;2022-09-09T11:18:58;100267.91;;;26.77;64.25
10310;BME280;5200;43.236;27.986;2022-09-09T11:21:36;100267.78;;;26.84;63.97
10310;BME280;5200;43.236;27.986;2022-09-09T11:24:10;100268.88;;;26.99;63.37
10310;BME280;5200;43.236;27.986;2022-09-09T11:26:42;100271.53;;;27.11;62.96
10310;BME280;5200;43.236;27.986;2022-09-09T11:32:34;100261.91;;;27.15;62.95
10310;BME280;5200;43.236;27.986;2022-09-09T11:35:22;100259.94;;;27.11;63.26
10310;BME280;5200;43.236;27.986;2022-09-09T11:38:13;100260.78;;;26.99;63.52
10310;BME280;5200;43.236;27.986;2022-09-09T11:40:43;100264.91;;;26.90;64.62
10310;BME280;5200;43.236;27.986;2022-09-09T11:43:13;100258.75;;;26.78;64.65
10310;BME280;5200;43.236;27.986;2022-09-09T11:45:43;100262.63;;;26.70;64.67
10310;BME280;5200;43.236;27.986;2022-09-09T11:48:23;100258.34;;;26.58;64.79
10310;BME280;5200;43.236;27.986;2022-09-09T11:51:00;100245.16;;;26.49;65.32
10310;BME280;5200;43.236;27.986;2022-09-09T11:53:30;100248.59;;;26.56;65.58
10310;BME280;5200;43.236;27.986;2022-09-09T11:56:06;100254.19;;;26.67;66.13
10310;BME280;5200;43.236;27.986;2022-09-09T11:58:38;100255.94;;;26.73;65.43
10310;BME280;5200;43.236;27.986;2022-09-09T12:01:28;100242.47;;;26.49;65.77
10310;BME280;5200;43.236;27.986;2022-09-09T12:04:15;100237.69;;;26.28;66.25
10310;BME280;5200;43.236;27.986;2022-09-09T12:06:45;100244.00;;;26.22;66.21
10310;BME280;5200;43.236;27.986;2022-09-09T12:09:19;100235.81;;;26.28;66.27
10310;BME280;5200;43.236;27.986;2022-09-09T12:11:48;100222.09;;;26.30;65.96
10310;BME280;5200;43.236;27.986;2022-09-09T12:14:23;100228.28;;;26.42;66.01
10310;BME280;5200;43.236;27.986;2022-09-09T12:17:09;100215.38;;;26.44;64.91
10310;BME280;5200;43.236;27.986;2022-09-09T12:19:36;100225.09;;;26.45;64.50
10310;BME280;5200;43.236;27.986;2022-09-09T12:22:07;100221.13;;;26.24;65.77
10310;BME280;5200;43.236;27.986;2022-09-09T12:24:43;100223.25;;;26.10;66.35
10310;BME280;5200;43.236;27.986;2022-09-09T12:27:18;100214.22;;;25.93;65.41
10310;BME280;5200;43.236;27.986;2022-09-09T12:29:51;100215.66;;;25.53;67.73
10310;BME280;5200;43.236;27.986;2022-09-09T12:32:24;100208.59;;;25.29;69.70
10310;BME280;5200;43.236;27.986;2022-09-09T12:34:53;100210.31;;;25.23;70.59
10310;BME280;5200;43.236;27.986;2022-09-09T12:37:28;100203.56;;;25.02;71.54
10310;BME280;5200;43.236;27.986;2022-09-09T12:39:59;100208.03;;;25.08;71.92
10310;BME280;5200;43.236;27.986;2022-09-09T12:42:28;100208.41;;;25.12;71.90
10310;BME280;5200;43.236;27.986;2022-09-09T12:44:56;100216.69;;;25.10;71.06
10310;BME280;5200;43.236;27.986;2022-09-09T12:47:29;100214.59;;;25.13;70.88
10310;BME280;5200;43.236;27.986;2022-09-09T12:50:00;100211.22;;;25.17;70.61
10310;BME280;5200;43.236;27.986;2022-09-09T12:52:29;100210.13;;;25.06;71.24
10310;BME280;5200;43.236;27.986;2022-09-09T12:55:00;100213.22;;;24.92;72.00
10310;BME280;5200;43.236;27.986;2022-09-09T12:57:34;100204.09;;;24.93;72.43
10310;BME280;5200;43.236;27.986;2022-09-09T13:00:14;100195.78;;;24.94;72.41
10310;BME280;5200;43.236;27.986;2022-09-09T13:02:47;100198.25;;;24.96;72.38
10310;BME280;5200;43.236;27.986;2022-09-09T13:05:18;100206.94;;;24.98;71.50
10310;BME280;5200;43.236;27.986;2022-09-09T13:07:45;100196.13;;;24.86;71.13
10310;BME280;5200;43.236;27.986;2022-09-09T13:10:22;100195.09;;;24.68;72.41
10310;BME280;5200;43.236;27.986;2022-09-09T13:12:51;100192.94;;;24.59;73.75
10310;BME280;5200;43.236;27.986;2022-09-09T13:15:21;100186.50;;;24.60;73.25